createdAt,value
2019-05-09T00:00:53.578Z,94066.47
2019-05-09T00:03:24.573Z,94063.84
2019-05-09T00:05:55.603Z,94062.77
2019-05-09T00:08:26.610Z,94064.70
2019-05-09T00:10:57.644Z,94067.86
2019-05-09T00:13:28.677Z,94068.66
2019-05-09T00:15:59.693Z,94066.97
2019-05-09T00:18:30.762Z,94065.66
2019-05-09T00:21:08.501Z,94071.94
2019-05-09T00:23:39.512Z,94068.20
2019-05-09T00:26:10.601Z,94065.27
2019-05-09T00:28:44.356Z,94067.45
2019-05-09T00:31:29.860Z,94076.17
2019-05-09T00:34:04.432Z,94082.03
2019-05-09T00:36:35.378Z,94080.08
2019-05-09T00:39:07.750Z,94084.93
2019-05-09T00:41:38.791Z,94080.41
2019-05-09T00:44:16.734Z,94074.84
2019-05-09T00:46:56.797Z,94071.95
2019-05-09T00:49:28.227Z,94078.11
2019-05-09T00:51:59.331Z,94070.66
2019-05-09T00:54:30.353Z,94073.58
2019-05-09T00:57:03.218Z,94070.95
2019-05-09T00:59:34.542Z,94079.59
2019-05-09T01:02:05.625Z,94077.66
2019-05-09T01:04:37.609Z,94076.19
2019-05-09T01:07:08.655Z,94077.48
2019-05-09T01:09:39.654Z,94073.57
2019-05-09T01:12:10.788Z,94068.07
2019-05-09T01:14:43.240Z,94058.81
2019-05-09T01:17:14.359Z,94052.97
2019-05-09T01:19:45.370Z,94053.41
2019-05-09T01:22:16.568Z,94052.62
2019-05-09T01:24:47.649Z,94053.14
2019-05-09T01:27:18.732Z,94056.37
2019-05-09T01:29:49.740Z,94052.58
2019-05-09T01:32:28.853Z,94053.47
2019-05-09T01:34:59.906Z,94050.49
2019-05-09T01:37:30.991Z,94055.23
2019-05-09T01:40:04.134Z,94047.23
2019-05-09T01:42:34.784Z,94057.80
2019-05-09T01:45:06.035Z,94058.75
2019-05-09T01:47:37.163Z,94062.02
2019-05-09T01:50:08.353Z,94062.69
2019-05-09T01:52:39.712Z,94057.66
2019-05-09T01:55:11.246Z,94048.23
2019-05-09T01:57:45.717Z,94048.69
2019-05-09T02:00:16.642Z,94036.67
2019-05-09T02:02:47.654Z,94036.81
2019-05-09T02:05:18.916Z,94042.21
2019-05-09T02:07:50.124Z,94039.31
2019-05-09T02:10:23.130Z,94039.42
2019-05-09T02:12:54.329Z,94042.51
2019-05-09T02:15:34.678Z,94049.72
2019-05-09T02:18:13.774Z,94047.23
2019-05-09T02:20:44.875Z,94039.30
2019-05-09T02:23:15.992Z,94032.37
2019-05-09T02:25:47.012Z,94032.03
2019-05-09T02:28:18.005Z,94031.72
2019-05-09T02:30:49.257Z,94033.22
2019-05-09T02:33:20.255Z,94025.30
2019-05-09T02:35:57.056Z,94032.55
2019-05-09T02:38:23.989Z,94031.42
2019-05-09T02:40:54.999Z,94037.17
2019-05-09T02:43:28.827Z,94032.89
2019-05-09T02:46:09.662Z,94030.94
2019-05-09T02:48:41.195Z,94022.14
2019-05-09T02:51:12.203Z,94024.42
2019-05-09T02:53:43.207Z,94021.31
2019-05-09T02:56:14.208Z,94019.48
2019-05-09T02:58:54.103Z,94029.94
2019-05-09T03:01:32.014Z,94027.25
2019-05-09T03:04:03.116Z,94029.77
2019-05-09T03:06:34.351Z,94025.89
2019-05-09T03:09:08.846Z,94028.01
2019-05-09T03:11:41.344Z,94025.50
2019-05-09T03:14:12.408Z,94021.70
2019-05-09T03:16:43.421Z,94027.25
2019-05-09T03:19:14.581Z,94026.11
2019-05-09T03:22:10.175Z,94019.61
2019-05-09T03:24:41.165Z,94017.47
2019-05-09T03:27:18.882Z,94018.49
2019-05-09T03:29:54.249Z,94019.15
2019-05-09T03:32:25.270Z,94015.64
2019-05-09T03:34:58.045Z,94018.41
2019-05-09T03:37:29.174Z,94015.81
2019-05-09T03:40:00.263Z,94015.44
2019-05-09T03:42:42.943Z,94006.97
2019-05-09T03:45:04.335Z,94009.31
2019-05-09T03:47:47.860Z,94007.19
2019-05-09T03:50:19.109Z,94005.20
2019-05-09T03:52:50.122Z,94006.05
2019-05-09T03:55:31.468Z,94002.95
2019-05-09T03:58:07.764Z,94010.10
2019-05-09T04:00:38.768Z,94013.18
2019-05-09T04:03:10.153Z,94013.83
2019-05-09T04:05:55.149Z,94013.48
2019-05-09T04:08:22.848Z,94008.25
2019-05-09T04:10:54.636Z,94012.06
2019-05-09T04:13:29.865Z,94011.58
2019-05-09T04:16:01.132Z,94012.17
2019-05-09T04:18:32.308Z,94010.87
2019-05-09T04:21:03.739Z,94017.05
2019-05-09T04:23:34.852Z,94010.05
2019-05-09T04:26:17.503Z,94009.53
2019-05-09T04:28:48.501Z,94007.98
2019-05-09T04:31:19.785Z,94008.09
2019-05-09T04:33:51.100Z,94012.46
2019-05-09T04:36:38.835Z,94013.16
2019-05-09T04:39:20.962Z,94015.44
2019-05-09T04:41:48.754Z,94010.11
2019-05-09T04:44:34.043Z,94008.42
2019-05-09T04:47:05.214Z,94007.12
2019-05-09T04:49:40.954Z,94015.20
2019-05-09T04:52:08.901Z,94024.94
2019-05-09T04:54:39.906Z,94031.55
2019-05-09T04:57:10.922Z,94026.06
2019-05-09T04:59:41.998Z,94038.16
2019-05-09T05:02:29.419Z,94037.17
2019-05-09T05:05:00.430Z,94032.70
2019-05-09T05:07:31.489Z,94028.69
2019-05-09T05:10:02.711Z,94024.79
2019-05-09T05:12:33.871Z,94027.85
2019-05-09T05:15:07.862Z,94024.47
2019-05-09T05:17:38.225Z,94029.98
2019-05-09T05:20:14.637Z,94027.05
2019-05-09T05:22:54.190Z,94026.74
2019-05-09T05:25:25.254Z,94028.31
2019-05-09T05:27:58.128Z,94023.45
2019-05-09T05:30:29.098Z,94027.48
2019-05-09T05:33:04.059Z,94030.56
2019-05-09T05:35:41.505Z,94030.72
2019-05-09T05:38:12.515Z,94032.03
2019-05-09T05:40:46.409Z,94034.60
2019-05-09T05:43:17.385Z,94033.75
2019-05-09T05:45:58.518Z,94036.37
2019-05-09T05:48:31.551Z,94029.88
2019-05-09T05:51:02.886Z,94034.00
2019-05-09T05:53:34.039Z,94035.13
2019-05-09T05:56:05.211Z,94029.80
2019-05-09T05:58:38.520Z,94035.84
2019-05-09T06:01:09.298Z,94040.52
2019-05-09T06:03:40.518Z,94035.70
2019-05-09T06:06:11.864Z,94040.56
2019-05-09T06:08:42.933Z,94043.22
2019-05-09T06:11:14.072Z,94038.42
2019-05-09T06:13:54.441Z,94045.09
2019-05-09T06:16:21.990Z,94034.22
2019-05-09T06:18:50.838Z,94036.23
2019-05-09T06:21:21.920Z,94030.91
2019-05-09T06:23:53.027Z,94029.83
2019-05-09T06:26:24.143Z,94026.09
2019-05-09T06:28:57.547Z,94027.70
2019-05-09T06:31:28.564Z,94030.64
2019-05-09T06:33:59.838Z,94021.38
2019-05-09T06:36:31.645Z,94027.29
2019-05-09T06:39:02.700Z,94021.59
2019-05-09T06:41:33.852Z,94026.40
2019-05-09T06:44:17.239Z,94030.70
2019-05-09T06:46:51.917Z,94029.61
2019-05-09T06:49:29.260Z,94039.95
2019-05-09T06:51:59.392Z,94036.92
2019-05-09T06:54:30.445Z,94031.49
2019-05-09T06:57:01.566Z,94015.64
2019-05-09T06:59:32.749Z,94013.52
2019-05-09T07:02:12.544Z,94009.34
2019-05-09T07:04:47.621Z,93998.27
2019-05-09T07:07:27.951Z,93988.11
2019-05-09T07:10:00.656Z,93987.05
2019-05-09T07:12:31.847Z,93987.53
2019-05-09T07:15:03.076Z,93984.96
2019-05-09T07:17:34.530Z,93981.48
2019-05-09T07:20:08.519Z,93973.10
2019-05-09T07:22:47.952Z,93976.52
2019-05-09T07:25:27.866Z,93974.70
2019-05-09T07:27:59.067Z,93971.41
2019-05-09T07:30:41.304Z,93967.10
2019-05-09T07:33:27.943Z,93964.02
2019-05-09T07:35:59.145Z,93953.50
2019-05-09T07:38:31.272Z,93949.30
2019-05-09T07:41:02.586Z,93950.69
2019-05-09T07:43:33.894Z,93943.41
2019-05-09T07:46:11.321Z,93946.55
2019-05-09T07:48:43.720Z,93944.00
2019-05-09T07:51:14.939Z,93948.31
2019-05-09T07:53:48.227Z,93943.23
2019-05-09T07:56:19.588Z,93936.89
2019-05-09T07:58:50.769Z,93943.53
2019-05-09T08:01:21.904Z,93941.63
2019-05-09T08:03:53.110Z,93938.66
2019-05-09T08:06:24.144Z,93932.41
2019-05-09T08:08:57.892Z,93936.89
2019-05-09T08:11:29.491Z,93944.00
2019-05-09T08:14:00.716Z,93962.51
2019-05-09T08:16:31.747Z,93956.27
2019-05-09T08:19:02.875Z,93950.27
2019-05-09T08:21:33.924Z,93957.08
2019-05-09T08:24:08.129Z,93952.74
2019-05-09T08:26:39.653Z,93952.82
2019-05-09T08:29:10.834Z,93958.73
2019-05-09T08:31:45.374Z,93961.61
2019-05-09T08:34:14.844Z,93960.02
2019-05-09T08:36:47.767Z,93972.42
2019-05-09T08:39:20.568Z,93961.16
2019-05-09T08:41:51.600Z,93962.25
2019-05-09T08:44:22.826Z,93950.89
2019-05-09T08:46:54.027Z,93941.69
2019-05-09T08:49:31.349Z,93947.88
2019-05-09T08:52:15.122Z,93948.11
2019-05-09T08:54:54.108Z,93948.67
2019-05-09T08:57:25.312Z,93952.53
2019-05-09T08:59:58.713Z,93946.08
2019-05-09T09:02:29.270Z,93942.31
2019-05-09T09:05:00.458Z,93952.05
2019-05-09T09:07:31.578Z,93937.83
2019-05-09T09:10:02.558Z,93939.15
2019-05-09T09:12:34.633Z,93932.58
2019-05-09T09:15:07.761Z,93937.85
2019-05-09T09:17:39.091Z,93933.34
2019-05-09T09:20:11.112Z,93931.81
2019-05-09T09:22:42.141Z,93929.84
2019-05-09T09:25:14.402Z,93927.03
2019-05-09T09:27:50.165Z,93929.70
2019-05-09T09:30:24.695Z,93931.11
2019-05-09T09:32:52.403Z,93923.36
2019-05-09T09:35:23.743Z,93930.14
2019-05-09T09:37:54.763Z,93931.88
2019-05-09T09:40:27.859Z,93929.72
2019-05-09T09:42:59.345Z,93917.08
2019-05-09T09:45:30.460Z,93911.91
2019-05-09T09:48:01.589Z,93910.12
2019-05-09T09:50:32.877Z,93907.65
2019-05-09T09:53:04.135Z,93911.30
2019-05-09T09:55:35.156Z,93906.98
2019-05-09T09:58:08.161Z,93911.16
2019-05-09T10:00:54.821Z,93910.61
2019-05-09T10:03:25.937Z,93917.70
2019-05-09T10:05:57.880Z,93919.02
2019-05-09T10:08:29.139Z,93901.31
2019-05-09T10:11:00.633Z,93900.56
2019-05-09T10:13:31.963Z,93891.41
2019-05-09T10:16:25.468Z,93888.23
2019-05-09T10:18:52.684Z,93890.80
2019-05-09T10:21:33.679Z,93889.02
2019-05-09T10:24:05.147Z,93889.92
2019-05-09T10:26:38.995Z,93902.14
2019-05-09T10:29:10.347Z,93901.96
2019-05-09T10:31:41.381Z,93900.28
2019-05-09T10:34:12.433Z,93906.64
2019-05-09T10:36:43.447Z,93906.97
2019-05-09T10:39:14.539Z,93902.67
2019-05-09T10:41:45.539Z,93908.61
2019-05-09T10:44:24.773Z,93906.76
2019-05-09T10:47:08.665Z,93901.66
2019-05-09T10:49:39.751Z,93913.36
2019-05-09T10:52:14.281Z,93926.69
2019-05-09T10:54:43.437Z,93929.62
2019-05-09T10:57:14.539Z,93936.14
2019-05-09T10:59:47.758Z,93940.11
2019-05-09T11:02:18.467Z,93940.89
2019-05-09T11:04:49.481Z,93941.59
2019-05-09T11:07:21.552Z,93954.44
2019-05-09T11:09:52.663Z,93963.53
2019-05-09T11:12:23.698Z,93963.22
2019-05-09T11:14:54.696Z,93971.55
2019-05-09T11:17:25.761Z,93991.16
2019-05-09T11:19:58.799Z,93993.16
2019-05-09T11:22:29.814Z,93999.56
2019-05-09T11:25:00.819Z,94014.81
2019-05-09T11:27:31.879Z,94026.59
2019-05-09T11:30:03.003Z,94029.80
2019-05-09T11:32:34.086Z,94037.39
2019-05-09T11:35:08.759Z,94039.69
2019-05-09T11:37:38.994Z,94050.48
2019-05-09T11:40:10.388Z,94052.30
2019-05-09T11:42:41.561Z,94038.04
2019-05-09T11:45:13.615Z,94007.99
2019-05-09T11:47:46.479Z,93990.55
2019-05-09T11:50:22.708Z,93992.55
2019-05-09T11:52:50.482Z,93985.07
2019-05-09T11:55:34.949Z,93984.73
2019-05-09T11:57:54.445Z,93984.37
2019-05-09T12:00:25.636Z,93975.08
2019-05-09T12:02:58.195Z,93975.05
2019-05-09T12:05:29.591Z,93966.77
2019-05-09T12:08:00.579Z,93973.61
2019-05-09T12:10:31.581Z,93963.07
2019-05-09T12:13:02.813Z,93954.67
2019-05-09T12:15:33.818Z,93951.03
2019-05-09T12:18:09.172Z,93958.47
2019-05-09T12:20:37.791Z,93947.73
2019-05-09T12:23:09.270Z,93954.33
2019-05-09T12:25:40.307Z,93959.34
2019-05-09T12:28:11.515Z,93953.64
2019-05-09T12:30:42.639Z,93936.95
2019-05-09T12:33:13.629Z,93944.45
2019-05-09T12:35:44.605Z,93937.58
2019-05-09T12:38:17.880Z,93928.00
2019-05-09T12:40:48.368Z,93916.59
2019-05-09T12:43:19.478Z,93914.89
2019-05-09T12:45:50.765Z,93915.14
2019-05-09T12:48:21.814Z,93906.78
2019-05-09T12:50:53.535Z,93916.88
2019-05-09T12:53:24.567Z,93912.91
2019-05-09T12:56:01.590Z,93917.91
2019-05-09T12:58:32.801Z,93911.45
2019-05-09T13:01:03.897Z,93911.12
2019-05-09T13:03:34.989Z,93918.13
2019-05-09T13:06:08.131Z,93905.46
2019-05-09T13:08:39.041Z,93906.97
2019-05-09T13:11:10.097Z,93908.89
2019-05-09T13:13:41.680Z,93907.86
2019-05-09T13:16:23.402Z,93915.00
2019-05-09T13:19:08.064Z,93903.67
2019-05-09T13:21:39.334Z,93907.47
2019-05-09T13:24:10.483Z,93914.23
2019-05-09T13:26:43.193Z,93906.78
2019-05-09T13:29:14.264Z,93896.16
2019-05-09T13:31:45.233Z,93893.11
2019-05-09T13:34:18.611Z,93892.33
2019-05-09T13:36:49.135Z,93878.52
2019-05-09T13:39:20.294Z,93873.95
2019-05-09T13:41:51.280Z,93884.23
2019-05-09T13:44:22.552Z,93884.09
2019-05-09T13:46:53.604Z,93887.64
2019-05-09T13:49:24.632Z,93876.48
2019-05-09T13:52:03.953Z,93879.79
2019-05-09T13:54:28.673Z,93868.61
2019-05-09T13:57:01.433Z,93870.36
2019-05-09T13:59:33.896Z,93871.24
2019-05-09T14:02:05.056Z,93868.03
2019-05-09T14:04:39.180Z,93859.69
2019-05-09T14:07:09.581Z,93876.25
2019-05-09T14:09:40.735Z,93874.95
2019-05-09T14:12:11.841Z,93881.31
2019-05-09T14:14:42.915Z,93879.53
2019-05-09T14:17:14.106Z,93869.34
2019-05-09T14:19:46.685Z,93875.97
2019-05-09T14:22:18.127Z,93878.58
2019-05-09T14:24:49.362Z,93877.03
2019-05-09T14:27:20.349Z,93881.58
2019-05-09T14:29:51.381Z,93884.86
2019-05-09T14:32:22.399Z,93898.14
2019-05-09T14:34:53.446Z,93891.12
2019-05-09T14:37:24.478Z,93894.42
2019-05-09T14:39:58.626Z,93897.97
2019-05-09T14:42:29.116Z,93900.84
2019-05-09T14:45:00.161Z,93925.30
2019-05-09T14:47:31.178Z,93940.23
2019-05-09T14:50:02.455Z,93956.95
2019-05-09T14:52:33.682Z,93957.92
2019-05-09T14:55:05.026Z,93954.66
2019-05-09T14:57:38.293Z,93962.02
2019-05-09T15:00:10.057Z,93963.09
2019-05-09T15:02:41.136Z,93965.67
2019-05-09T15:05:12.244Z,93973.10
2019-05-09T15:07:43.393Z,93964.78
2019-05-09T15:10:14.738Z,93961.22
2019-05-09T15:12:45.846Z,93963.39
2019-05-09T15:15:18.499Z,93960.70
2019-05-09T15:17:50.004Z,93953.36
2019-05-09T15:20:21.240Z,93958.27
2019-05-09T15:22:52.354Z,93953.25
2019-05-09T15:25:23.607Z,93960.22
2019-05-09T15:27:54.730Z,93945.67
2019-05-09T15:30:28.743Z,93947.30
2019-05-09T15:32:58.935Z,93953.31
2019-05-09T15:35:29.944Z,93951.77
2019-05-09T15:38:00.949Z,93943.55
2019-05-09T15:40:31.960Z,93952.58
2019-05-09T15:43:03.081Z,93944.13
2019-05-09T15:45:41.059Z,93935.97
2019-05-09T15:48:21.128Z,93934.08
2019-05-09T15:50:52.190Z,93942.25
2019-05-09T15:53:23.319Z,93935.30
2019-05-09T15:55:54.423Z,93926.67
2019-05-09T15:58:25.616Z,93937.66
2019-05-09T16:00:58.865Z,93933.64
2019-05-09T16:03:29.490Z,93938.30
2019-05-09T16:06:00.705Z,93932.36
2019-05-09T16:08:31.777Z,93926.47
2019-05-09T16:11:03.092Z,93929.83
2019-05-09T16:13:34.303Z,93936.14
2019-05-09T16:16:05.606Z,93936.27
2019-05-09T16:18:37.831Z,93931.95
2019-05-09T16:21:09.217Z,93948.84
2019-05-09T16:23:40.326Z,93947.20
2019-05-09T16:26:11.374Z,93953.85
2019-05-09T16:28:43.770Z,93960.52
2019-05-09T16:31:14.894Z,93960.39
2019-05-09T16:33:47.753Z,93956.63
2019-05-09T16:36:19.083Z,93958.52
2019-05-09T16:38:50.113Z,93960.93
2019-05-09T16:41:21.481Z,93964.53
2019-05-09T16:43:52.622Z,93956.55
2019-05-09T16:46:23.696Z,93967.62
2019-05-09T16:48:54.749Z,93973.56
2019-05-09T16:51:28.425Z,93976.89
2019-05-09T16:53:58.676Z,93979.27
2019-05-09T16:56:29.844Z,93988.13
2019-05-09T16:59:00.950Z,93994.29
2019-05-09T17:01:32.093Z,94004.16
2019-05-09T17:04:03.209Z,93998.11
2019-05-09T17:06:34.280Z,94002.14
2019-05-09T17:09:08.406Z,94018.46
2019-05-09T17:11:39.930Z,94005.88
2019-05-09T17:14:11.137Z,94009.58
2019-05-09T17:16:42.250Z,94018.56
2019-05-09T17:19:13.250Z,94018.23
2019-05-09T17:21:50.411Z,94020.16
2019-05-09T17:24:21.603Z,94032.39
2019-05-09T17:26:52.712Z,94031.70
2019-05-09T17:29:23.983Z,94045.87
2019-05-09T17:31:55.161Z,94042.67
2019-05-09T17:34:28.569Z,94046.66
2019-05-09T17:36:58.976Z,94044.44
2019-05-09T17:39:30.094Z,94053.27
2019-05-09T17:42:01.294Z,94053.24
2019-05-09T17:44:32.533Z,94059.95
2019-05-09T17:47:03.772Z,94063.14
2019-05-09T17:49:34.830Z,94076.82
2019-05-09T17:52:07.593Z,94069.08
2019-05-09T17:54:38.764Z,94074.59
2019-05-09T17:57:10.373Z,94088.47
2019-05-09T17:59:41.492Z,94091.08
2019-05-09T18:02:12.732Z,94104.02
2019-05-09T18:04:43.767Z,94099.72
2019-05-09T18:07:15.102Z,94102.58
2019-05-09T18:09:48.379Z,94125.42
2019-05-09T18:12:19.207Z,94114.13
2019-05-09T18:14:50.291Z,94126.09
2019-05-09T18:17:21.320Z,94131.87
2019-05-09T18:19:52.314Z,94131.90
2019-05-09T18:22:23.402Z,94141.12
2019-05-09T18:24:54.466Z,94139.61
2019-05-09T18:27:27.433Z,94139.17
2019-05-09T18:29:58.902Z,94153.52
2019-05-09T18:32:38.341Z,94155.42
2019-05-09T18:35:20.851Z,94145.91
2019-05-09T18:37:52.530Z,94150.29
2019-05-09T18:43:00.136Z,94158.88
2019-05-09T18:45:31.802Z,94154.93
2019-05-09T18:48:04.153Z,94156.16
2019-05-09T18:50:35.303Z,94162.97
2019-05-09T18:53:06.416Z,94168.66
2019-05-09T18:55:36.771Z,94173.70
2019-05-09T18:58:07.860Z,94177.94
2019-05-09T19:00:38.932Z,94186.26
2019-05-09T19:03:10.015Z,94186.23
2019-05-09T19:05:41.005Z,94192.98
2019-05-09T19:08:12.395Z,94200.91
2019-05-09T19:10:43.464Z,94196.83
2019-05-09T19:13:14.650Z,94190.53
2019-05-09T19:16:20.031Z,94209.08
2019-05-09T19:18:57.748Z,94214.48
2019-05-09T19:21:32.377Z,94225.11
2019-05-09T19:24:04.419Z,94232.27
2019-05-09T19:26:38.847Z,94236.47
2019-05-09T19:29:10.764Z,94239.45
2019-05-09T19:31:42.013Z,94239.14
2019-05-09T19:34:13.180Z,94243.50
2019-05-09T19:36:44.253Z,94251.02
2019-05-09T19:39:15.413Z,94258.71
2019-05-09T19:41:46.491Z,94259.49
2019-05-09T19:44:17.493Z,94260.44
2019-05-09T19:46:48.652Z,94262.14
2019-05-09T19:49:19.798Z,94269.73
2019-05-09T19:51:51.049Z,94271.44
2019-05-09T19:54:22.047Z,94277.94
2019-05-09T19:56:53.062Z,94272.35
2019-05-09T19:59:24.051Z,94281.69
2019-05-09T20:01:55.162Z,94278.99
2019-05-09T20:04:26.349Z,94286.03
2019-05-09T20:06:57.416Z,94290.98
2019-05-09T20:09:37.780Z,94288.92
2019-05-09T20:12:36.375Z,94283.02
2019-05-09T20:17:50.876Z,94288.31
2019-05-09T20:20:21.910Z,94290.69
2019-05-09T20:22:53.536Z,94299.44
2019-05-09T20:25:24.721Z,94305.31
2019-05-09T20:27:55.727Z,94317.28
2019-05-09T20:30:26.832Z,94310.65
2019-05-09T20:32:57.854Z,94318.69
2019-05-09T20:35:28.862Z,94314.03
2019-05-09T20:38:00.350Z,94328.98
2019-05-09T20:40:31.787Z,94324.45
2019-05-09T20:43:03.085Z,94332.84
2019-05-09T20:45:34.317Z,94331.37
2019-05-09T20:48:06.148Z,94332.11
2019-05-09T20:50:37.339Z,94333.61
2019-05-09T20:53:10.037Z,94339.83
2019-05-09T20:55:42.490Z,94339.30
2019-05-09T20:58:13.662Z,94339.69
2019-05-09T21:00:44.926Z,94341.98
2019-05-09T21:03:16.232Z,94342.30
2019-05-09T21:05:48.704Z,94341.95
2019-05-09T21:08:19.890Z,94348.61
2019-05-09T21:10:51.268Z,94350.58
2019-05-09T21:13:22.450Z,94356.68
2019-05-09T21:15:53.726Z,94362.06
2019-05-09T21:18:24.919Z,94366.53
2019-05-09T21:20:56.190Z,94365.01
2019-05-09T21:23:27.478Z,94369.73
2019-05-09T21:25:58.647Z,94372.69
2019-05-09T21:28:29.845Z,94377.98
2019-05-09T21:31:01.133Z,94384.19
2019-05-09T21:33:32.667Z,94378.19
2019-05-09T21:36:03.674Z,94378.20
2019-05-09T21:38:34.798Z,94391.78
2019-05-09T21:41:05.979Z,94389.26
2019-05-09T21:43:36.985Z,94390.80
2019-05-09T21:46:07.983Z,94387.05
2019-05-09T21:48:39.053Z,94389.84
2019-05-09T21:51:11.200Z,94391.19
2019-05-09T21:53:42.515Z,94384.79
2019-05-09T21:56:13.494Z,94397.31
2019-05-09T21:58:44.866Z,94395.83
2019-05-09T22:01:19.820Z,94396.98
2019-05-09T22:03:52.380Z,94398.22
2019-05-09T22:06:23.486Z,94407.03
2019-05-09T22:08:54.722Z,94407.37
2019-05-09T22:11:25.809Z,94412.93
2019-05-09T22:13:56.991Z,94412.19
2019-05-09T22:16:27.965Z,94415.02
2019-05-09T22:18:59.108Z,94417.58
2019-05-09T22:21:30.203Z,94413.19
2019-05-09T22:24:01.257Z,94425.84
2019-05-09T22:26:32.250Z,94425.33
2019-05-09T22:29:03.314Z,94428.08
2019-05-09T22:31:34.778Z,94430.03
2019-05-09T22:34:05.849Z,94426.29
2019-05-09T22:36:36.931Z,94438.20
2019-05-09T22:39:09.130Z,94432.27
2019-05-09T22:41:40.975Z,94431.61
2019-05-09T22:44:12.091Z,94436.01
2019-05-09T22:46:43.279Z,94430.62
2019-05-09T22:49:14.373Z,94440.98
2019-05-09T22:51:46.423Z,94438.99
2019-05-09T22:54:17.409Z,94441.52
2019-05-09T22:56:48.654Z,94444.52
2019-05-09T22:59:19.728Z,94444.23
2019-05-09T23:01:51.985Z,94445.68
2019-05-09T23:04:23.131Z,94450.90
2019-05-09T23:06:54.304Z,94457.65
2019-05-09T23:09:25.356Z,94460.96
2019-05-09T23:16:10.741Z,94457.34
2019-05-09T23:18:41.761Z,94456.59
2019-05-09T23:21:12.802Z,94457.93
2019-05-09T23:23:50.651Z,94462.80
2019-05-09T23:26:22.901Z,94463.83
2019-05-09T23:28:54.093Z,94467.09
2019-05-09T23:31:34.609Z,94464.00
2019-05-09T23:34:05.770Z,94461.67
2019-05-09T23:36:36.780Z,94470.23
2019-05-09T23:39:15.736Z,94470.06
2019-05-09T23:41:46.824Z,94477.16
2019-05-09T23:44:17.927Z,94481.48
2019-05-09T23:46:49.052Z,94475.05
2019-05-09T23:49:20.249Z,94476.24
2019-05-09T23:51:51.258Z,94479.53
2019-05-09T23:54:46.630Z,94482.09
2019-05-09T23:57:31.512Z,94475.59
